Time;durP1;ratioP1;P1;durP2;ratioP2;P2;SDS_P1;SDS_P2;PMS_P1;PMS_P2;Temp;Humidity;BMP_temperature;BMP_pressure;BME280_temperature;BME280_humidity;BME280_pressure;Samples;Min_cycle;Max_cycle;Signal;HPM_P1;HPM_P2
2021/10/07 00:00:47;;;;;;;16.42;1.40;;;;;;;;;;5031570;28;20040;-61
2021/10/07 00:03:13;;;;;;;3.28;1.00;;;;;;;;;;5031803;28;20033;-61
2021/10/07 00:05:39;;;;;;;3.45;1.00;;;;;;;;;;5031645;28;20424;-61
2021/10/07 00:08:06;;;;;;;2.00;0.70;;;;;;;;;;5023264;28;20022;-61
2021/10/07 00:10:32;;;;;;;3.60;1.02;;;;;;;;;;5011953;28;20026;-61
2021/10/07 00:12:58;;;;;;;4.40;0.90;;;;;;;;;;5011857;28;20037;-61
2021/10/07 00:15:24;;;;;;;3.08;0.80;;;;;;;;;;5012202;28;20030;-61
2021/10/07 00:17:50;;;;;;;7.10;0.95;;;;;;;;;;5020769;27;20026;-61
2021/10/07 00:20:17;;;;;;;6.05;1.00;;;;;;;;;;5135538;27;20113;-61
2021/10/07 00:22:44;;;;;;;4.07;1.15;;;;;;;;;;5135775;27;20057;-61
2021/10/07 00:25:12;;;;;;;3.63;0.90;;;;;;;;;;5030029;27;20033;-61
2021/10/07 00:27:38;;;;;;;6.55;0.70;;;;;;;;;;5010753;28;20022;-61
2021/10/07 00:30:09;;;;;;;5.57;0.80;;;;;;;;;;5011226;28;20026;-61
2021/10/07 00:32:40;;;;;;;5.55;0.90;;;;;;;;;;5011227;28;20474;-61
2021/10/07 00:35:21;;;;;;;1.67;0.80;;;;;;;;;;5011737;28;20061;-61
2021/10/07 00:40:31;;;;;;;4.70;1.00;;;;;;;;;;5010899;28;20090;-61
2021/10/07 00:42:57;;;;;;;3.60;0.73;;;;;;;;;;5011383;28;20033;-61
2021/10/07 00:45:23;;;;;;;3.58;0.98;;;;;;;;;;5011458;28;20102;-61
2021/10/07 00:47:49;;;;;;;5.88;1.23;;;;;;;;;;5010953;28;20030;-62
2021/10/07 00:50:15;;;;;;;2.13;0.93;;;;;;;;;;5011298;28;20022;-61
2021/10/07 00:52:41;;;;;;;4.20;1.20;;;;;;;;;;5046648;27;20020;-61
2021/10/07 00:55:11;;;;;;;5.43;0.80;;;;;;;;;;5135243;27;20031;-61
2021/10/07 00:57:37;;;;;;;2.00;0.68;;;;;;;;;;5111482;27;20464;-61
2021/10/07 01:00:03;;;;;;;2.70;1.05;;;;;;;;;;5030955;28;20022;-61
2021/10/07 01:02:29;;;;;;;3.00;0.80;;;;;;;;;;5030884;28;20026;-60
2021/10/07 01:04:55;;;;;;;2.25;0.90;;;;;;;;;;5030785;28;20029;-61
2021/10/07 01:07:22;;;;;;;5.55;1.00;;;;;;;;;;5030703;28;20030;-61
2021/10/07 01:09:48;;;;;;;3.22;0.85;;;;;;;;;;5030667;28;20022;-60
2021/10/07 01:12:14;;;;;;;3.05;1.00;;;;;;;;;;5030599;28;20025;-61
2021/10/07 01:14:52;;;;;;;7.07;0.93;;;;;;;;;;5021977;28;20026;-61
2021/10/07 01:17:23;;;;;;;5.93;0.80;;;;;;;;;;5010659;28;20392;-61
2021/10/07 01:19:50;;;;;;;4.00;0.80;;;;;;;;;;5113835;27;20023;-61
2021/10/07 01:22:16;;;;;;;5.10;0.82;;;;;;;;;;5115557;27;20087;-61
2021/10/07 01:24:42;;;;;;;2.63;0.70;;;;;;;;;;5134772;27;20019;-62
2021/10/07 01:27:09;;;;;;;1.05;0.52;;;;;;;;;;5134410;27;20355;-62
2021/10/07 01:29:35;;;;;;;2.45;0.75;;;;;;;;;;5134456;27;20522;-61
2021/10/07 01:32:01;;;;;;;3.75;0.80;;;;;;;;;;5086106;27;20044;-61
2021/10/07 01:34:29;;;;;;;7.53;0.80;;;;;;;;;;5030541;28;20048;-61
2021/10/07 01:36:55;;;;;;;1.27;0.47;;;;;;;;;;5030602;28;20025;-61
2021/10/07 01:39:21;;;;;;;3.92;1.13;;;;;;;;;;5029583;28;20029;-61
2021/10/07 01:41:47;;;;;;;1.77;0.68;;;;;;;;;;5030206;28;20504;-61
2021/10/07 01:44:13;;;;;;;7.20;0.93;;;;;;;;;;5030121;28;20033;-60
2021/10/07 01:46:39;;;;;;;1.92;0.60;;;;;;;;;;5029926;28;20074;-61
2021/10/07 01:49:07;;;;;;;2.22;0.80;;;;;;;;;;5097243;28;20025;-61
2021/10/07 01:51:33;;;;;;;7.97;0.98;;;;;;;;;;5030103;28;20037;-61
2021/10/07 01:53:59;;;;;;;1.77;0.70;;;;;;;;;;5114864;27;20035;-61
2021/10/07 01:56:24;;;;;;;2.35;0.75;;;;;;;;;;5133796;27;20076;-61
2021/10/07 01:58:50;;;;;;;1.35;0.70;;;;;;;;;;5134003;27;20038;-61
2021/10/07 02:01:16;;;;;;;2.42;0.65;;;;;;;;;;5133746;27;20402;-61
2021/10/07 02:03:42;;;;;;;1.45;0.68;;;;;;;;;;5133856;27;20018;-60
2021/10/07 02:06:08;;;;;;;1.98;0.70;;;;;;;;;;5077965;27;20037;-61
2021/10/07 02:08:34;;;;;;;1.33;0.70;;;;;;;;;;5030339;28;20030;-61
2021/10/07 02:11:00;;;;;;;2.67;0.85;;;;;;;;;;5030059;28;20377;-61
2021/10/07 02:13:27;;;;;;;2.05;0.65;;;;;;;;;;5097901;28;20033;-62
2021/10/07 02:15:53;;;;;;;2.28;0.70;;;;;;;;;;5029810;28;20030;-61
2021/10/07 02:18:19;;;;;;;2.28;0.68;;;;;;;;;;5057474;28;20029;-61
2021/10/07 02:20:45;;;;;;;6.03;0.80;;;;;;;;;;5129076;28;20031;-60
2021/10/07 02:23:11;;;;;;;5.57;0.60;;;;;;;;;;5009865;28;20469;-61
2021/10/07 02:25:37;;;;;;;3.67;0.60;;;;;;;;;;5010008;28;20080;-61
2021/10/07 02:28:03;;;;;;;1.52;0.70;;;;;;;;;;5009754;28;20040;-61
2021/10/07 02:30:29;;;;;;;2.67;0.65;;;;;;;;;;5009945;28;20026;-61
2021/10/07 02:32:55;;;;;;;1.40;0.75;;;;;;;;;;5009750;28;20046;-62
2021/10/07 02:35:21;;;;;;;2.85;0.60;;;;;;;;;;5009976;28;20102;-61
2021/10/07 02:37:47;;;;;;;2.65;0.60;;;;;;;;;;5009657;28;20026;-61
2021/10/07 02:40:14;;;;;;;3.45;0.63;;;;;;;;;;5027343;28;20065;-61
2021/10/07 02:42:40;;;;;;;1.58;0.75;;;;;;;;;;5029856;28;20372;-61
2021/10/07 02:45:07;;;;;;;4.80;0.80;;;;;;;;;;5029235;28;20024;-61
2021/10/07 02:47:33;;;;;;;2.22;0.88;;;;;;;;;;5029355;28;20104;-61
2021/10/07 02:49:59;;;;;;;1.58;0.57;;;;;;;;;;5029673;28;20030;-61
2021/10/07 02:52:25;;;;;;;1.10;0.60;;;;;;;;;;5049685;27;20015;-61
2021/10/07 02:54:51;;;;;;;2.35;0.50;;;;;;;;;;5137299;27;20088;-61
2021/10/07 02:57:17;;;;;;;1.30;0.63;;;;;;;;;;5025718;27;20469;-61
2021/10/07 02:59:43;;;;;;;1.45;0.47;;;;;;;;;;5013122;28;20030;-61
2021/10/07 03:02:09;;;;;;;1.80;0.60;;;;;;;;;;5012878;28;20042;-61
2021/10/07 03:04:35;;;;;;;2.10;0.80;;;;;;;;;;5013012;28;20033;-60
2021/10/07 03:07:02;;;;;;;1.30;0.43;;;;;;;;;;5081114;28;20030;-61
2021/10/07 03:09:28;;;;;;;1.50;0.52;;;;;;;;;;5081037;28;20424;-61
2021/10/07 03:11:54;;;;;;;1.27;0.60;;;;;;;;;;5024338;28;20532;-61
2021/10/07 03:14:20;;;;;;;3.20;0.70;;;;;;;;;;5032511;28;20473;-61
2021/10/07 03:16:46;;;;;;;2.85;0.70;;;;;;;;;;5032284;28;20025;-61
2021/10/07 03:19:12;;;;;;;1.15;0.50;;;;;;;;;;5098292;27;20025;-61
2021/10/07 03:21:39;;;;;;;4.10;0.75;;;;;;;;;;5136774;27;20408;-61
2021/10/07 03:24:05;;;;;;;1.55;0.60;;;;;;;;;;5118521;27;20022;-62
2021/10/07 03:26:32;;;;;;;2.90;0.80;;;;;;;;;;5100165;28;20122;-61
2021/10/07 03:28:58;;;;;;;1.30;0.50;;;;;;;;;;5032305;28;20026;-61
2021/10/07 03:31:24;;;;;;;1.95;0.52;;;;;;;;;;5032166;28;20060;-61
2021/10/07 03:33:50;;;;;;;1.38;0.52;;;;;;;;;;5032299;28;20057;-61
2021/10/07 03:36:16;;;;;;;1.17;0.55;;;;;;;;;;5032249;28;20028;-61
2021/10/07 03:38:42;;;;;;;1.65;0.60;;;;;;;;;;5032090;28;20025;-61
2021/10/07 03:41:08;;;;;;;1.75;0.60;;;;;;;;;;5030978;28;20352;-61
2021/10/07 03:43:34;;;;;;;0.82;0.50;;;;;;;;;;5012343;28;20030;-60
2021/10/07 03:46:00;;;;;;;2.10;0.50;;;;;;;;;;5012135;28;20040;-61
2021/10/07 03:48:26;;;;;;;1.85;0.80;;;;;;;;;;5079741;28;20427;-62
2021/10/07 03:50:52;;;;;;;1.70;0.52;;;;;;;;;;5012226;28;20026;-61
2021/10/07 03:53:18;;;;;;;3.45;0.60;;;;;;;;;;5078899;27;20419;-61
2021/10/07 03:55:44;;;;;;;5.53;0.60;;;;;;;;;;5136180;27;20019;-61
2021/10/07 03:58:10;;;;;;;2.90;0.70;;;;;;;;;;5049685;27;20036;-61
2021/10/07 04:00:36;;;;;;;1.77;0.50;;;;;;;;;;5031551;28;20420;-61
2021/10/07 04:03:03;;;;;;;0.65;0.50;;;;;;;;;;5031405;28;20025;-61
2021/10/07 04:05:29;;;;;;;1.55;0.60;;;;;;;;;;5031416;28;20045;-62
2021/10/07 04:07:55;;;;;;;5.82;0.60;;;;;;;;;;5031903;28;20146;-63
2021/10/07 04:10:21;;;;;;;0.82;0.52;;;;;;;;;;5031383;28;20132;-61
2021/10/07 04:12:47;;;;;;;12.40;0.47;;;;;;;;;;5031658;28;20041;-61
2021/10/07 04:15:13;;;;;;;6.22;0.70;;;;;;;;;;5018258;28;20025;-61
2021/10/07 04:17:38;;;;;;;0.82;0.40;;;;;;;;;;5011764;28;20030;-61
2021/10/07 04:20:05;;;;;;;0.80;0.50;;;;;;;;;;5135244;27;20451;-61
2021/10/07 04:22:31;;;;;;;1.13;0.47;;;;;;;;;;5117110;27;20478;-62
2021/10/07 04:24:57;;;;;;;6.53;0.60;;;;;;;;;;5117236;27;20761;-61
2021/10/07 04:27:24;;;;;;;1.65;0.60;;;;;;;;;;5135726;27;20023;-61
2021/10/07 04:29:50;;;;;;;3.90;1.08;;;;;;;;;;5135369;27;20030;-61
2021/10/07 04:32:16;;;;;;;1.45;0.60;;;;;;;;;;5072532;27;20128;-61
2021/10/07 04:34:42;;;;;;;4.28;0.75;;;;;;;;;;5099569;28;20109;-61
2021/10/07 04:37:08;;;;;;;4.55;0.80;;;;;;;;;;5031307;28;20052;-61
2021/10/07 04:39:34;;;;;;;4.47;0.80;;;;;;;;;;5031432;28;20067;-61
2021/10/07 04:42:00;;;;;;;4.60;0.50;;;;;;;;;;5031154;28;20041;-61
2021/10/07 04:44:26;;;;;;;1.70;0.60;;;;;;;;;;5031126;28;20035;-61
2021/10/07 04:46:52;;;;;;;1.73;0.50;;;;;;;;;;5029779;28;20029;-60
2021/10/07 04:49:18;;;;;;;4.50;0.63;;;;;;;;;;5031100;28;20464;-61
2021/10/07 04:51:44;;;;;;;1.38;0.57;;;;;;;;;;5030779;28;20034;-60
2021/10/07 04:54:10;;;;;;;4.65;0.80;;;;;;;;;;5123931;27;20046;-61
2021/10/07 04:56:36;;;;;;;6.18;0.63;;;;;;;;;;5041653;27;20120;-61
2021/10/07 04:59:02;;;;;;;8.38;0.70;;;;;;;;;;5030942;28;20108;-60
2021/10/07 05:01:28;;;;;;;10.88;1.00;;;;;;;;;;5030694;28;20041;-61
2021/10/07 05:03:54;;;;;;;4.55;0.77;;;;;;;;;;5027691;28;20030;-60
2021/10/07 05:06:20;;;;;;;4.43;0.60;;;;;;;;;;5010863;28;20034;-61
2021/10/07 05:08:46;;;;;;;8.30;0.90;;;;;;;;;;5010913;28;20162;-61
2021/10/07 05:11:12;;;;;;;11.88;0.70;;;;;;;;;;5010834;28;20109;-60
2021/10/07 05:13:38;;;;;;;7.30;0.82;;;;;;;;;;5010409;28;20029;-61
2021/10/07 05:16:04;;;;;;;2.70;0.70;;;;;;;;;;5012999;28;20034;-60
2021/10/07 05:18:30;;;;;;;11.30;1.10;;;;;;;;;;5057799;27;20019;-60
2021/10/07 05:20:56;;;;;;;7.00;0.70;;;;;;;;;;5017045;28;20361;-61
2021/10/07 05:23:22;;;;;;;9.73;1.00;;;;;;;;;;5020428;28;20045;-61
2021/10/07 05:25:48;;;;;;;9.20;1.20;;;;;;;;;;5021426;28;20029;-62
2021/10/07 05:28:14;;;;;;;4.45;0.80;;;;;;;;;;5019407;28;20076;-61
2021/10/07 05:30:40;;;;;;;3.78;0.80;;;;;;;;;;5022935;28;20047;-61
2021/10/07 05:33:06;;;;;;;6.88;0.90;;;;;;;;;;5021072;28;20453;-61
2021/10/07 05:35:32;;;;;;;6.60;1.20;;;;;;;;;;5022636;28;20025;-61
2021/10/07 05:37:59;;;;;;;8.00;1.10;;;;;;;;;;5021337;28;20025;-61
2021/10/07 05:40:25;;;;;;;10.73;1.33;;;;;;;;;;5018181;28;20014;-60
2021/10/07 05:42:51;;;;;;;8.35;1.10;;;;;;;;;;5023140;28;20460;-61
2021/10/07 05:45:17;;;;;;;2.88;0.90;;;;;;;;;;5028389;28;20041;-60
2021/10/07 05:47:43;;;;;;;9.45;1.13;;;;;;;;;;5010476;28;20404;-60
2021/10/07 05:50:10;;;;;;;6.25;1.00;;;;;;;;;;5010224;28;20018;-60
2021/10/07 05:52:37;;;;;;;5.32;1.10;;;;;;;;;;5041093;27;20450;-60
2021/10/07 05:55:03;;;;;;;3.65;1.10;;;;;;;;;;5133715;27;20412;-64
2021/10/07 05:57:29;;;;;;;2.65;0.82;;;;;;;;;;5011139;28;20037;-61
2021/10/07 05:59:55;;;;;;;6.03;0.90;;;;;;;;;;5010260;28;20109;-61
2021/10/07 06:02:21;;;;;;;6.07;1.10;;;;;;;;;;5010053;28;20120;-61
2021/10/07 06:04:47;;;;;;;5.57;0.95;;;;;;;;;;5010110;28;20458;-61
2021/10/07 06:07:13;;;;;;;3.78;1.00;;;;;;;;;;5010069;28;20113;-61
2021/10/07 06:09:39;;;;;;;4.05;1.10;;;;;;;;;;5010099;28;20026;-61
2021/10/07 06:12:05;;;;;;;8.60;1.30;;;;;;;;;;5009892;28;20089;-61
2021/10/07 06:14:31;;;;;;;4.97;1.08;;;;;;;;;;5010172;28;20489;-61
2021/10/07 06:16:57;;;;;;;7.28;1.13;;;;;;;;;;5009969;28;20068;-61
2021/10/07 06:19:25;;;;;;;9.27;1.02;;;;;;;;;;5109350;28;20015;-61
2021/10/07 06:21:52;;;;;;;4.57;1.20;;;;;;;;;;5133533;28;20023;-60
2021/10/07 06:24:19;;;;;;;11.80;1.00;;;;;;;;;;5133601;28;20386;-60
2021/10/07 06:26:45;;;;;;;14.05;1.25;;;;;;;;;;5136840;27;20024;-62
2021/10/07 06:29:12;;;;;;;27.77;1.42;;;;;;;;;;5137887;27;20023;-61
2021/10/07 06:31:38;;;;;;;25.15;1.13;;;;;;;;;;5137652;27;20047;-63
2021/10/07 06:34:05;;;;;;;18.25;2.13;;;;;;;;;;5136750;27;20019;-62
2021/10/07 06:36:31;;;;;;;11.35;1.30;;;;;;;;;;5036081;27;20573;-61
2021/10/07 06:38:57;;;;;;;2.72;1.02;;;;;;;;;;5101784;28;20021;-62
2021/10/07 06:41:23;;;;;;;15.88;1.50;;;;;;;;;;5046944;27;20083;-62
2021/10/07 06:43:50;;;;;;;10.57;1.40;;;;;;;;;;5137445;27;20024;-62
2021/10/07 06:46:16;;;;;;;12.02;1.33;;;;;;;;;;5118119;27;20031;-63
2021/10/07 06:48:42;;;;;;;17.63;1.42;;;;;;;;;;5118852;27;20024;-61
2021/10/07 06:51:11;;;;;;;6.72;1.10;;;;;;;;;;5061678;27;20490;-64
2021/10/07 06:53:38;;;;;;;6.65;1.10;;;;;;;;;;5117944;27;20506;-61
2021/10/07 06:56:05;;;;;;;4.38;1.05;;;;;;;;;;5117666;27;20399;-64
2021/10/07 06:58:31;;;;;;;8.90;1.45;;;;;;;;;;5118288;27;20027;-63
2021/10/07 07:00:57;;;;;;;4.60;1.15;;;;;;;;;;5136683;27;20035;-61
2021/10/07 07:03:23;;;;;;;4.80;1.10;;;;;;;;;;5137371;27;20374;-61
2021/10/07 07:05:49;;;;;;;8.98;1.25;;;;;;;;;;5132722;27;20072;-61
2021/10/07 07:08:15;;;;;;;10.35;1.20;;;;;;;;;;5136713;27;20034;-62
2021/10/07 07:10:41;;;;;;;5.85;1.10;;;;;;;;;;5118646;27;20023;-61
2021/10/07 07:13:08;;;;;;;4.25;0.80;;;;;;;;;;5137133;27;20062;-61
2021/10/07 07:15:35;;;;;;;9.00;1.15;;;;;;;;;;5050445;27;20029;-62
2021/10/07 07:18:01;;;;;;;7.10;1.13;;;;;;;;;;5029654;27;20456;-61
2021/10/07 07:20:27;;;;;;;7.38;1.10;;;;;;;;;;5133888;27;20106;-63
2021/10/07 07:22:53;;;;;;;6.93;1.10;;;;;;;;;;5075181;27;20075;-61
2021/10/07 07:25:19;;;;;;;7.43;1.15;;;;;;;;;;5035480;27;20418;-61
2021/10/07 07:27:45;;;;;;;3.28;0.85;;;;;;;;;;5065141;27;20023;-61
2021/10/07 07:30:11;;;;;;;5.75;1.10;;;;;;;;;;5074026;27;20023;-61
2021/10/07 07:32:37;;;;;;;9.00;1.10;;;;;;;;;;5032019;28;20497;-60
2021/10/07 07:35:04;;;;;;;4.68;0.85;;;;;;;;;;5032034;28;20036;-60
2021/10/07 07:37:30;;;;;;;2.97;0.90;;;;;;;;;;5031445;28;20036;-61
2021/10/07 07:39:56;;;;;;;11.05;0.98;;;;;;;;;;5033240;28;20021;-61
2021/10/07 07:42:22;;;;;;;4.05;1.00;;;;;;;;;;5048771;27;20397;-63
2021/10/07 07:44:48;;;;;;;4.85;1.10;;;;;;;;;;5091293;27;20448;-61
2021/10/07 07:47:14;;;;;;;3.00;0.88;;;;;;;;;;5077526;27;20037;-62
2021/10/07 07:49:40;;;;;;;7.63;0.98;;;;;;;;;;5091876;27;20030;-61
2021/10/07 07:52:07;;;;;;;3.85;0.80;;;;;;;;;;5119189;27;20388;-62
2021/10/07 07:54:33;;;;;;;5.10;1.13;;;;;;;;;;5018372;28;20060;-61
2021/10/07 07:56:59;;;;;;;5.47;1.23;;;;;;;;;;5093722;28;20381;-60
2021/10/07 07:59:25;;;;;;;3.08;0.98;;;;;;;;;;5014558;27;20030;-60
2021/10/07 08:01:51;;;;;;;2.83;0.70;;;;;;;;;;5096679;27;20430;-60
2021/10/07 08:04:17;;;;;;;8.50;1.15;;;;;;;;;;5020038;28;20126;-59
2021/10/07 08:06:43;;;;;;;5.45;1.08;;;;;;;;;;5078766;27;20026;-59
2021/10/07 08:09:09;;;;;;;2.75;1.00;;;;;;;;;;5099181;28;20113;-59
2021/10/07 08:11:39;;;;;;;5.70;1.10;;;;;;;;;;5024303;28;20090;-60
2021/10/07 08:14:06;;;;;;;11.57;1.00;;;;;;;;;;5023722;28;20097;-60
2021/10/07 08:16:32;;;;;;;2.25;0.82;;;;;;;;;;5013317;28;20109;-60
2021/10/07 08:18:58;;;;;;;3.60;0.82;;;;;;;;;;5035524;27;20041;-60
2021/10/07 08:21:24;;;;;;;1.88;0.73;;;;;;;;;;5024983;28;20038;-61
2021/10/07 08:23:52;;;;;;;2.33;0.82;;;;;;;;;;5079391;28;20022;-60
2021/10/07 08:26:18;;;;;;;7.18;0.77;;;;;;;;;;5020567;28;20033;-60
2021/10/07 08:28:44;;;;;;;5.38;0.80;;;;;;;;;;5020189;28;20082;-63
2021/10/07 08:31:12;;;;;;;3.35;0.90;;;;;;;;;;5093986;28;20026;-60
2021/10/07 08:33:39;;;;;;;3.05;0.98;;;;;;;;;;5034034;27;20398;-60
2021/10/07 08:36:05;;;;;;;1.75;0.90;;;;;;;;;;5013028;28;20026;-60
2021/10/07 08:38:32;;;;;;;2.83;0.93;;;;;;;;;;5023724;28;20074;-61
2021/10/07 08:40:58;;;;;;;8.27;0.80;;;;;;;;;;5095428;28;20106;-60
2021/10/07 08:43:25;;;;;;;5.00;1.00;;;;;;;;;;5017031;28;20033;-59
2021/10/07 08:45:51;;;;;;;4.10;0.90;;;;;;;;;;5024862;28;20026;-62
2021/10/07 08:48:17;;;;;;;4.55;1.00;;;;;;;;;;5024700;28;20397;-60
2021/10/07 08:50:43;;;;;;;1.75;1.00;;;;;;;;;;5016761;28;20029;-60
2021/10/07 08:53:09;;;;;;;6.75;1.10;;;;;;;;;;5022420;28;20028;-60
2021/10/07 08:55:35;;;;;;;3.65;0.90;;;;;;;;;;5019853;28;20030;-59
2021/10/07 08:58:02;;;;;;;4.22;1.23;;;;;;;;;;5027709;28;20029;-60
2021/10/07 09:00:28;;;;;;;5.18;1.17;;;;;;;;;;5090400;28;20034;-59
2021/10/07 09:02:56;;;;;;;2.65;0.70;;;;;;;;;;5082526;28;20040;-59
2021/10/07 09:05:23;;;;;;;2.05;0.93;;;;;;;;;;5041740;27;20064;-59
2021/10/07 09:07:52;;;;;;;3.25;0.95;;;;;;;;;;5023079;28;20045;-59
2021/10/07 09:10:18;;;;;;;2.78;0.88;;;;;;;;;;5021467;28;20096;-59
2021/10/07 09:13:03;;;;;;;3.15;1.00;;;;;;;;;;5014524;28;20950;-59
2021/10/07 09:15:30;;;;;;;4.55;1.20;;;;;;;;;;5026225;27;20075;-60
2021/10/07 09:17:56;;;;;;;7.78;1.50;;;;;;;;;;5027368;27;20025;-59
2021/10/07 09:20:35;;;;;;;1.13;0.68;;;;;;;;;;5022797;28;20437;-61
2021/10/07 09:23:09;;;;;;;4.72;0.88;;;;;;;;;;5015496;28;20486;-59
2021/10/07 09:25:53;;;;;;;3.25;0.88;;;;;;;;;;5014314;28;20029;-59
2021/10/07 09:28:19;;;;;;;5.88;0.80;;;;;;;;;;5015455;28;20053;-59
2021/10/07 09:30:45;;;;;;;5.00;0.90;;;;;;;;;;5085091;28;20060;-59
2021/10/07 09:33:11;;;;;;;1.98;0.88;;;;;;;;;;5017368;28;20093;-62
2021/10/07 09:35:37;;;;;;;13.80;1.05;;;;;;;;;;5022722;28;20056;-60
2021/10/07 09:38:05;;;;;;;11.27;1.52;;;;;;;;;;5015781;27;20030;-60
2021/10/07 09:40:32;;;;;;;13.55;1.30;;;;;;;;;;5012709;28;20109;-59
2021/10/07 09:42:59;;;;;;;13.63;2.28;;;;;;;;;;5030658;28;20060;-61
2021/10/07 09:45:32;;;;;;;29.38;1.40;;;;;;;;;;5016272;28;20104;-62
2021/10/07 09:47:59;;;;;;;13.50;1.35;;;;;;;;;;5017562;28;20029;-64
2021/10/07 09:50:33;;;;;;;17.85;1.38;;;;;;;;;;5085187;28;20022;-64
2021/10/07 09:53:05;;;;;;;16.75;1.35;;;;;;;;;;5022175;28;20025;-59
2021/10/07 09:55:41;;;;;;;15.63;1.60;;;;;;;;;;5020601;27;20087;-63
2021/10/07 09:58:24;;;;;;;20.05;1.52;;;;;;;;;;5019233;28;20331;-61
2021/10/07 10:00:51;;;;;;;20.50;1.50;;;;;;;;;;5023797;28;20034;-65
2021/10/07 10:03:18;;;;;;;19.40;1.10;;;;;;;;;;5026829;28;20040;-65
2021/10/07 10:05:46;;;;;;;13.90;1.60;;;;;;;;;;5023897;28;20053;-59
2021/10/07 10:08:14;;;;;;;10.93;1.23;;;;;;;;;;5024073;28;20041;-59
2021/10/07 10:10:40;;;;;;;7.95;1.50;;;;;;;;;;5021753;28;20090;-59
2021/10/07 10:13:07;;;;;;;15.60;1.42;;;;;;;;;;5009690;28;20026;-62
2021/10/07 10:15:34;;;;;;;8.77;1.65;;;;;;;;;;5020094;28;20030;-60
2021/10/07 10:18:01;;;;;;;20.77;1.27;;;;;;;;;;5016596;28;20065;-60
2021/10/07 10:20:28;;;;;;;14.98;1.20;;;;;;;;;;5017365;28;20500;-60
2021/10/07 10:23:00;;;;;;;11.30;1.67;;;;;;;;;;5017914;28;20026;-63
2021/10/07 10:25:27;;;;;;;6.55;1.25;;;;;;;;;;5015457;28;20026;-59
2021/10/07 10:27:59;;;;;;;10.57;1.33;;;;;;;;;;5017797;28;20079;-59
2021/10/07 10:30:29;;;;;;;9.25;1.08;;;;;;;;;;5018082;28;20144;-59
2021/10/07 10:32:56;;;;;;;5.93;1.05;;;;;;;;;;5023886;28;20138;-63
2021/10/07 10:35:29;;;;;;;7.63;1.30;;;;;;;;;;5021926;28;20137;-63
2021/10/07 10:37:56;;;;;;;4.40;1.20;;;;;;;;;;5018816;28;20495;-63
2021/10/07 10:40:22;;;;;;;19.15;1.40;;;;;;;;;;5014809;28;20044;-62
2021/10/07 10:42:48;;;;;;;13.60;1.40;;;;;;;;;;5010663;28;20672;-61
2021/10/07 10:45:14;;;;;;;13.68;1.20;;;;;;;;;;5026122;28;20120;-61
2021/10/07 10:47:42;;;;;;;14.77;1.65;;;;;;;;;;5023479;28;20420;-60
2021/10/07 10:50:12;;;;;;;13.73;1.55;;;;;;;;;;5016773;28;20029;-60
2021/10/07 10:52:46;;;;;;;8.60;1.00;;;;;;;;;;5020565;28;20030;-61
2021/10/07 10:55:26;;;;;;;11.52;1.55;;;;;;;;;;5016531;28;20021;-62
2021/10/07 10:57:59;;;;;;;27.98;1.73;;;;;;;;;;5029763;28;20053;-59
2021/10/07 11:00:25;;;;;;;8.65;1.20;;;;;;;;;;5017873;28;20060;-64
2021/10/07 11:02:53;;;;;;;19.20;1.67;;;;;;;;;;5020001;28;20090;-65
2021/10/07 11:05:27;;;;;;;14.32;1.50;;;;;;;;;;5013783;28;20032;-65
2021/10/07 11:08:11;;;;;;;16.13;1.55;;;;;;;;;;5015665;28;20022;-63
2021/10/07 11:10:38;;;;;;;18.23;2.03;;;;;;;;;;5028726;28;20053;-65
2021/10/07 11:13:04;;;;;;;10.07;1.88;;;;;;;;;;5098677;28;20450;-62
2021/10/07 11:15:31;;;;;;;7.15;1.60;;;;;;;;;;5032477;28;20040;-65
2021/10/07 11:17:57;;;;;;;22.42;1.58;;;;;;;;;;5018327;28;20026;-65
2021/10/07 11:20:28;;;;;;;9.48;1.85;;;;;;;;;;5029450;27;20030;-66
2021/10/07 11:23:05;;;;;;;11.60;2.15;;;;;;;;;;5099127;27;20025;-64
2021/10/07 11:25:32;;;;;;;12.95;1.40;;;;;;;;;;5040654;27;20030;-64
2021/10/07 11:27:58;;;;;;;14.68;2.13;;;;;;;;;;5078749;27;20046;-65
2021/10/07 11:30:24;;;;;;;8.75;1.52;;;;;;;;;;5072391;27;20030;-62
2021/10/07 11:32:50;;;;;;;20.92;1.90;;;;;;;;;;5032239;28;20050;-59
2021/10/07 11:35:18;;;;;;;15.30;1.50;;;;;;;;;;5029444;28;20037;-59
2021/10/07 11:37:45;;;;;;;9.65;1.55;;;;;;;;;;5032159;28;20032;-59
2021/10/07 11:40:20;;;;;;;9.75;1.50;;;;;;;;;;5028537;28;20029;-59
2021/10/07 11:42:46;;;;;;;14.55;1.65;;;;;;;;;;5080317;28;20072;-59
2021/10/07 11:45:19;;;;;;;13.68;2.03;;;;;;;;;;5021102;28;20053;-61
2021/10/07 11:47:45;;;;;;;7.53;1.10;;;;;;;;;;5031874;28;20030;-59
2021/10/07 11:50:12;;;;;;;13.68;1.70;;;;;;;;;;5029324;28;20035;-59
2021/10/07 11:52:38;;;;;;;11.48;2.05;;;;;;;;;;5059254;27;20580;-59
2021/10/07 11:55:04;;;;;;;10.48;1.60;;;;;;;;;;5031509;28;20405;-59
2021/10/07 11:57:30;;;;;;;8.80;1.52;;;;;;;;;;5051596;28;20021;-61
2021/10/07 11:59:56;;;;;;;10.80;1.70;;;;;;;;;;5049734;28;20027;-59
2021/10/07 12:02:23;;;;;;;10.77;1.48;;;;;;;;;;5031354;28;20046;-64
2021/10/07 12:04:49;;;;;;;7.75;1.60;;;;;;;;;;5031567;28;20026;-59
2021/10/07 12:07:15;;;;;;;7.43;1.48;;;;;;;;;;5100250;28;20079;-61
2021/10/07 12:09:42;;;;;;;7.95;1.30;;;;;;;;;;5031455;28;20381;-60
2021/10/07 12:12:08;;;;;;;6.30;1.80;;;;;;;;;;5031408;28;20041;-61
2021/10/07 12:14:34;;;;;;;15.40;1.63;;;;;;;;;;5031494;28;20053;-58
2021/10/07 12:17:00;;;;;;;7.47;1.10;;;;;;;;;;5056969;27;20018;-57
2021/10/07 12:19:27;;;;;;;7.18;1.35;;;;;;;;;;5031195;28;20047;-60
2021/10/07 12:21:59;;;;;;;6.68;1.77;;;;;;;;;;5019633;28;20034;-54
2021/10/07 12:24:26;;;;;;;7.90;1.27;;;;;;;;;;5010932;28;20032;-58
2021/10/07 12:26:53;;;;;;;7.53;1.75;;;;;;;;;;5011509;28;20274;-57
2021/10/07 12:29:21;;;;;;;14.18;1.63;;;;;;;;;;5092498;27;20106;-62
2021/10/07 12:31:50;;;;;;;6.00;1.20;;;;;;;;;;5015819;28;20061;-59
2021/10/07 12:34:18;;;;;;;11.70;1.45;;;;;;;;;;5017904;28;20038;-60
2021/10/07 12:36:46;;;;;;;12.95;1.40;;;;;;;;;;5028645;28;20082;-59
2021/10/07 12:39:38;;;;;;;7.25;1.30;;;;;;;;;;5023290;28;20107;-58
2021/10/07 12:42:09;;;;;;;8.63;1.58;;;;;;;;;;5013177;28;20046;-58
2021/10/07 12:44:37;;;;;;;10.85;1.40;;;;;;;;;;5020681;28;20093;-59
2021/10/07 12:47:05;;;;;;;15.60;2.30;;;;;;;;;;5027291;28;20037;-59
2021/10/07 12:49:36;;;;;;;13.77;1.67;;;;;;;;;;5010807;28;20061;-58
2021/10/07 12:52:10;;;;;;;13.27;2.10;;;;;;;;;;5013492;27;20044;-58
2021/10/07 12:54:37;;;;;;;16.05;1.95;;;;;;;;;;5034275;27;20021;-63
2021/10/07 12:57:03;;;;;;;15.48;2.08;;;;;;;;;;5022584;28;20034;-58
2021/10/07 12:59:29;;;;;;;10.02;1.30;;;;;;;;;;5020040;28;20038;-58
2021/10/07 13:01:55;;;;;;;13.15;1.80;;;;;;;;;;5012300;28;20116;-64
2021/10/07 13:07:25;;;;;;;;;;;;;;;;;;5017411;28;20183;-58
2021/10/07 13:09:51;;;;;;;20.23;2.13;;;;;;;;;;5080258;28;20000;-59
2021/10/07 13:12:18;;;;;;;17.13;1.88;;;;;;;;;;5016666;28;20481;-62
2021/10/07 13:14:54;;;;;;;8.60;1.52;;;;;;;;;;5045427;27;20021;-59
2021/10/07 13:17:20;;;;;;;14.60;1.77;;;;;;;;;;5027175;28;20029;-58
2021/10/07 13:19:46;;;;;;;7.57;1.80;;;;;;;;;;5099859;27;20028;-59
2021/10/07 13:22:12;;;;;;;10.65;1.55;;;;;;;;;;5018324;28;20374;-59
2021/10/07 13:24:38;;;;;;;25.42;1.77;;;;;;;;;;5011863;28;20365;-62
2021/10/07 13:27:09;;;;;;;12.63;2.35;;;;;;;;;;5020798;28;20477;-59
2021/10/07 13:29:35;;;;;;;14.68;1.58;;;;;;;;;;5040174;27;20026;-58
2021/10/07 13:32:01;;;;;;;12.20;1.73;;;;;;;;;;5026748;27;20128;-57
2021/10/07 13:34:27;;;;;;;15.35;1.20;;;;;;;;;;5010547;28;20030;-57
2021/10/07 13:36:53;;;;;;;18.20;2.13;;;;;;;;;;5013696;28;20028;-57
2021/10/07 13:39:19;;;;;;;13.07;1.95;;;;;;;;;;5030517;28;20152;-57
2021/10/07 13:41:46;;;;;;;15.30;1.65;;;;;;;;;;5029843;28;20045;-58
2021/10/07 13:44:12;;;;;;;7.63;1.38;;;;;;;;;;5103914;27;20021;-58
2021/10/07 13:46:39;;;;;;;6.68;1.50;;;;;;;;;;5037631;27;20021;-58
2021/10/07 13:49:04;;;;;;;12.00;1.70;;;;;;;;;;5030080;28;20496;-59
2021/10/07 13:51:31;;;;;;;9.82;1.40;;;;;;;;;;5029953;28;20029;-56
2021/10/07 13:53:58;;;;;;;12.40;1.48;;;;;;;;;;5098318;28;20040;-58
2021/10/07 13:56:24;;;;;;;7.95;1.33;;;;;;;;;;5029912;28;20330;-57
2021/10/07 13:58:50;;;;;;;7.57;1.63;;;;;;;;;;5029779;28;20483;-57
2021/10/07 14:01:15;;;;;;;9.60;1.50;;;;;;;;;;5029790;28;20030;-56
2021/10/07 14:03:41;;;;;;;7.80;1.30;;;;;;;;;;5029742;28;20072;-59
2021/10/07 14:06:07;;;;;;;4.28;1.10;;;;;;;;;;5029782;28;20032;-57
2021/10/07 14:08:34;;;;;;;5.70;1.52;;;;;;;;;;5029841;28;20434;-58
2021/10/07 14:11:05;;;;;;;10.50;1.50;;;;;;;;;;5029747;28;20480;-57
2021/10/07 14:13:32;;;;;;;10.53;1.93;;;;;;;;;;5030028;28;20036;-57
2021/10/07 14:15:58;;;;;;;10.10;1.63;;;;;;;;;;5029777;28;20029;-58
2021/10/07 14:18:24;;;;;;;4.40;1.40;;;;;;;;;;5029862;28;20033;-58
2021/10/07 14:20:50;;;;;;;5.30;1.27;;;;;;;;;;5029492;28;20151;-58
2021/10/07 14:23:16;;;;;;;8.80;1.42;;;;;;;;;;5029504;28;20037;-58
2021/10/07 14:25:42;;;;;;;13.05;1.60;;;;;;;;;;5028237;28;20033;-59
2021/10/07 14:28:08;;;;;;;10.85;1.70;;;;;;;;;;5028987;28;20478;-58
2021/10/07 14:30:35;;;;;;;3.78;1.40;;;;;;;;;;5096183;28;20020;-58
2021/10/07 14:33:01;;;;;;;4.38;1.33;;;;;;;;;;5132820;28;20364;-57
2021/10/07 14:35:27;;;;;;;7.43;1.75;;;;;;;;;;5132972;28;20463;-57
2021/10/07 14:37:53;;;;;;;5.68;1.63;;;;;;;;;;5048126;28;20132;-57
2021/10/07 14:40:21;;;;;;;5.60;1.45;;;;;;;;;;5011763;28;20109;-58
2021/10/07 14:42:47;;;;;;;5.15;1.45;;;;;;;;;;5009219;28;20395;-58
2021/10/07 14:45:13;;;;;;;7.60;1.80;;;;;;;;;;5009533;28;20037;-59